Time;durP1;ratioP1;P1;durP2;ratioP2;P2;SDS_P1;SDS_P2;PMS_P1;PMS_P2;Temp;Humidity;BMP_temperature;BMP_pressure;BME280_temperature;BME280_humidity;BME280_pressure;Samples;Min_cycle;Max_cycle;Signal;HPM_P1;HPM_P2
2022/08/20 00:01:00;;;;;;;2.20;1.10;;;;;;;18.87;75.15;97274.47;5018274;28;20054;-62
2022/08/20 00:03:37;;;;;;;1.63;0.82;;;;;;;18.92;74.91;97276.28;5019310;28;20037;-63
2022/08/20 00:06:04;;;;;;;3.28;1.10;;;;;;;18.85;75.39;97272.06;5018590;28;20533;-63
2022/08/20 00:08:31;;;;;;;2.03;1.17;;;;;;;18.88;75.31;97267.06;5026229;28;20119;-63
2022/08/20 00:10:58;;;;;;;2.28;1.00;;;;;;;18.89;75.29;97271.41;5019366;28;20096;-63
2022/08/20 00:13:40;;;;;;;1.52;1.00;;;;;;;18.88;75.60;97262.41;5017071;28;20052;-64
2022/08/20 00:16:09;;;;;;;1.83;0.98;;;;;;;18.84;75.76;97270.41;5016171;28;20033;-63
2022/08/20 00:18:36;;;;;;;1.95;1.00;;;;;;;18.80;75.85;97272.16;5025072;28;20492;-63
2022/08/20 00:21:06;;;;;;;2.13;1.00;;;;;;;18.77;75.89;97267.31;5021035;28;20042;-63
2022/08/20 00:23:36;;;;;;;1.48;0.93;;;;;;;18.77;75.98;97278.28;5018834;28;20045;-63
2022/08/20 00:26:03;;;;;;;2.35;1.13;;;;;;;18.75;76.11;97280.50;5014510;28;20038;-64
2022/08/20 00:28:30;;;;;;;3.75;1.25;;;;;;;18.74;76.30;97281.63;5011203;28;20045;-64
2022/08/20 00:30:57;;;;;;;2.97;0.80;;;;;;;18.74;76.45;97283.53;5020961;28;20049;-63
2022/08/20 00:33:24;;;;;;;3.00;1.33;;;;;;;18.72;76.53;97270.13;5018908;28;20428;-63
2022/08/20 00:35:55;;;;;;;3.05;1.08;;;;;;;18.68;76.51;97269.13;5020634;28;20034;-63
2022/08/20 00:38:23;;;;;;;1.60;1.08;;;;;;;18.64;77.07;97274.44;5017366;28;20058;-63
2022/08/20 00:40:54;;;;;;;3.10;1.00;;;;;;;18.57;77.19;97277.59;5021723;28;20042;-62
2022/08/20 00:43:35;;;;;;;2.17;1.00;;;;;;;18.51;77.54;97288.97;5017780;28;20053;-63
2022/08/20 00:46:09;;;;;;;3.88;1.15;;;;;;;18.43;77.88;97285.03;5018885;28;20033;-63
2022/08/20 00:48:42;;;;;;;2.75;0.98;;;;;;;18.51;77.43;97283.47;5011864;28;20049;-63
2022/08/20 00:51:21;;;;;;;3.35;1.20;;;;;;;18.53;77.30;97282.06;5022216;28;20551;-62
2022/08/20 00:53:47;;;;;;;4.72;1.33;;;;;;;18.55;77.03;97285.31;5018244;28;20044;-63
2022/08/20 00:56:14;;;;;;;2.00;0.90;;;;;;;18.45;77.42;97291.81;5019726;28;20046;-63
2022/08/20 00:58:43;;;;;;;2.80;1.10;;;;;;;18.23;78.41;97287.06;5018609;28;20053;-63
2022/08/20 01:01:12;;;;;;;2.63;0.80;;;;;;;18.15;79.00;97296.81;5016791;28;20091;-63
2022/08/20 01:03:41;;;;;;;1.98;1.10;;;;;;;18.07;79.45;97301.00;5025078;28;20693;-63
2022/08/20 01:06:10;;;;;;;1.85;1.10;;;;;;;18.14;79.22;97300.63;5018321;28;20030;-63
2022/08/20 01:08:38;;;;;;;3.15;1.15;;;;;;;18.25;78.58;97303.19;5017395;28;20045;-63
2022/08/20 01:11:09;;;;;;;1.52;0.95;;;;;;;18.22;78.97;97306.53;5023447;28;20049;-64
2022/08/20 01:13:37;;;;;;;1.67;1.00;;;;;;;18.14;79.47;97305.31;5014719;28;20064;-63
2022/08/20 01:16:19;;;;;;;2.05;1.20;;;;;;;18.09;79.94;97299.94;5017628;28;20087;-63
2022/08/20 01:18:48;;;;;;;1.88;1.02;;;;;;;18.09;79.89;97302.69;5007598;28;20124;-63
2022/08/20 01:21:18;;;;;;;1.30;0.90;;;;;;;18.17;79.81;97301.97;5019041;28;20057;-63
2022/08/20 01:23:55;;;;;;;2.80;0.93;;;;;;;18.09;80.22;97302.69;5014366;28;20046;-63
2022/08/20 01:26:29;;;;;;;3.97;1.10;;;;;;;18.00;80.80;97306.09;5016574;28;20034;-63
2022/08/20 01:29:01;;;;;;;3.85;1.05;;;;;;;18.00;80.67;97305.28;5015793;28;20095;-63
2022/08/20 01:31:31;;;;;;;2.20;1.08;;;;;;;17.94;80.98;97312.75;5015402;28;20041;-63
2022/08/20 01:34:00;;;;;;;2.45;0.90;;;;;;;17.96;80.71;97305.06;5013502;28;20041;-64
2022/08/20 01:36:34;;;;;;;2.60;1.13;;;;;;;17.97;80.87;97309.44;5020152;28;20045;-62
2022/08/20 01:39:04;;;;;;;2.15;1.23;;;;;;;18.03;80.77;97305.47;5014477;28;20107;-63
2022/08/20 01:41:38;;;;;;;2.20;1.20;;;;;;;18.05;80.68;97316.94;5023077;28;20049;-62
2022/08/20 01:44:04;;;;;;;1.90;1.05;;;;;;;18.07;80.79;97314.72;5014750;28;20045;-62
2022/08/20 01:46:38;;;;;;;1.23;0.85;;;;;;;18.07;80.61;97316.66;5017914;28;20549;-64
2022/08/20 01:49:17;;;;;;;2.30;1.10;;;;;;;17.92;81.48;97320.47;5015817;28;20038;-62
2022/08/20 01:51:52;;;;;;;3.50;1.10;;;;;;;17.88;81.62;97327.69;5023477;28;20124;-63
2022/08/20 01:54:20;;;;;;;1.83;1.00;;;;;;;17.82;81.82;97326.94;5015200;28;20076;-62
2022/08/20 01:57:01;;;;;;;1.90;1.00;;;;;;;17.77;81.94;97322.38;5017739;28;20092;-62
2022/08/20 01:59:28;;;;;;;2.50;1.50;;;;;;;17.69;82.52;97325.78;5020260;28;20034;-62
2022/08/20 02:01:55;;;;;;;2.78;1.17;;;;;;;17.65;82.43;97325.59;5023164;28;20295;-63
2022/08/20 02:04:22;;;;;;;1.88;1.02;;;;;;;17.65;82.82;97327.50;5018165;28;20508;-63
2022/08/20 02:06:55;;;;;;;2.22;1.20;;;;;;;17.62;82.60;97326.19;5020063;28;20107;-63
2022/08/20 02:09:33;;;;;;;2.47;1.13;;;;;;;17.57;83.18;97326.28;5014010;28;20734;-63
2022/08/20 02:12:02;;;;;;;2.92;1.10;;;;;;;17.54;83.40;97332.34;5021471;28;20045;-63
2022/08/20 02:14:29;;;;;;;5.65;1.30;;;;;;;17.52;83.64;97329.09;5022514;28;20041;-63
2022/08/20 02:16:57;;;;;;;2.67;1.23;;;;;;;17.53;83.63;97326.06;5019466;28;20037;-64
2022/08/20 02:20:13;;;;;;;3.00;1.40;;;;;;;17.62;83.47;97328.13;5018584;28;20041;-63
2022/08/20 02:22:55;;;;;;;2.90;1.40;;;;;;;17.58;83.48;97330.63;5021114;28;20092;-63
2022/08/20 02:25:25;;;;;;;2.17;1.20;;;;;;;17.57;83.82;97328.22;5024213;28;20434;-63
2022/08/20 02:27:53;;;;;;;9.55;1.95;;;;;;;17.60;83.54;97336.63;5022438;28;20611;-63
2022/08/20 02:30:33;;;;;;;3.80;1.10;;;;;;;17.51;83.88;97328.28;5027003;28;20042;-64
2022/08/20 02:33:02;;;;;;;2.03;1.08;;;;;;;17.44;84.33;97330.59;5020787;28;20453;-64
2022/08/20 02:35:31;;;;;;;3.38;1.40;;;;;;;17.45;84.44;97334.13;5019596;28;20485;-62
2022/08/20 02:37:59;;;;;;;2.13;1.27;;;;;;;17.48;83.90;97330.81;5010319;28;20095;-63
2022/08/20 02:40:28;;;;;;;2.53;1.40;;;;;;;17.34;84.77;97331.56;5026236;28;20034;-63
2022/08/20 02:42:58;;;;;;;2.75;1.40;;;;;;;17.35;85.06;97332.34;5026648;28;20050;-63
2022/08/20 02:45:25;;;;;;;2.67;1.35;;;;;;;17.37;85.08;97324.69;5021788;28;20033;-62
2022/08/20 02:47:52;;;;;;;2.45;1.25;;;;;;;17.42;85.16;97332.81;5019626;28;20104;-63
2022/08/20 02:50:22;;;;;;;2.67;1.50;;;;;;;17.52;84.72;97332.66;5025334;28;20053;-63
2022/08/20 02:52:49;;;;;;;2.65;1.25;;;;;;;17.55;84.75;97328.50;5024885;28;20493;-62
2022/08/20 02:55:19;;;;;;;2.97;1.30;;;;;;;17.58;84.46;97335.31;5024996;28;20041;-62
2022/08/20 02:57:59;;;;;;;3.28;1.40;;;;;;;17.62;84.48;97333.59;5018532;28;20068;-63
2022/08/20 03:00:30;;;;;;;2.67;1.40;;;;;;;17.71;84.01;97328.22;5025953;28;20049;-62
2022/08/20 03:03:05;;;;;;;3.00;1.60;;;;;;;17.77;83.97;97327.84;5018684;28;20205;-62
2022/08/20 03:05:32;;;;;;;3.67;1.73;;;;;;;17.81;83.78;97328.06;5025244;28;20045;-64
2022/08/20 03:07:59;;;;;;;4.72;1.45;;;;;;;17.84;83.81;97334.88;5018514;28;20038;-64
2022/08/20 03:10:30;;;;;;;2.80;1.90;;;;;;;17.88;83.67;97327.69;5026108;28;20041;-62
2022/08/20 03:12:59;;;;;;;2.63;1.58;;;;;;;17.93;83.38;97322.09;5017700;28;20084;-63
2022/08/20 03:15:28;;;;;;;2.08;1.52;;;;;;;18.05;82.82;97322.44;5019831;28;20041;-64
2022/08/20 03:17:54;;;;;;;3.40;2.10;;;;;;;18.05;83.11;97325.16;5021040;28;20038;-64
2022/08/20 03:20:22;;;;;;;2.75;1.63;;;;;;;18.04;83.14;97320.00;5023860;28;20041;-64
2022/08/20 03:22:50;;;;;;;2.63;1.60;;;;;;;18.13;82.85;97325.63;5024161;28;20091;-63
2022/08/20 03:25:17;;;;;;;4.18;2.10;;;;;;;18.19;82.50;97322.47;5025775;28;20116;-63
2022/08/20 03:27:45;;;;;;;4.22;2.08;;;;;;;18.24;82.39;97321.56;5022035;28;20602;-63
2022/08/20 03:30:19;;;;;;;3.45;2.05;;;;;;;18.28;82.48;97327.25;5019236;28;20041;-63
2022/08/20 03:32:46;;;;;;;4.20;2.05;;;;;;;18.33;82.05;97316.97;5021324;28;20049;-63
2022/08/20 03:35:15;;;;;;;3.22;1.98;;;;;;;18.40;81.86;97324.00;5016356;28;20092;-62
2022/08/20 03:37:42;;;;;;;4.78;2.20;;;;;;;18.44;81.64;97312.13;5022509;28;20040;-64
2022/08/20 03:40:19;;;;;;;3.03;1.83;;;;;;;18.45;81.83;97308.28;5026389;28;20041;-63
2022/08/20 03:42:46;;;;;;;3.80;2.33;;;;;;;18.43;81.90;97307.75;5019535;28;20041;-63
2022/08/20 03:45:12;;;;;;;5.00;2.55;;;;;;;18.45;81.82;97307.44;5016966;28;20050;-63
2022/08/20 03:47:45;;;;;;;3.65;2.30;;;;;;;18.47;81.65;97305.22;5018479;28;20041;-62
2022/08/20 03:50:12;;;;;;;3.67;2.53;;;;;;;18.48;81.70;97314.25;5018563;28;20506;-63
2022/08/20 03:52:49;;;;;;;4.28;2.63;;;;;;;18.46;81.80;97314.53;5026274;28;20052;-63
2022/08/20 03:55:16;;;;;;;4.05;2.65;;;;;;;18.45;81.99;97315.66;5019257;28;20041;-63
2022/08/20 03:57:49;;;;;;;5.20;2.78;;;;;;;18.41;82.12;97320.97;5024942;28;20459;-62
2022/08/20 04:00:20;;;;;;;4.35;2.58;;;;;;;18.40;82.10;97319.34;5023110;28;20392;-63
2022/08/20 04:02:47;;;;;;;4.15;2.60;;;;;;;18.34;82.66;97315.06;5016851;28;20037;-64
2022/08/20 04:05:14;;;;;;;4.72;2.75;;;;;;;18.35;82.41;97322.16;5019173;28;20060;-63
2022/08/20 04:07:41;;;;;;;5.00;2.75;;;;;;;18.32;82.78;97320.84;5017986;28;20053;-62
2022/08/20 04:10:10;;;;;;;5.07;2.50;;;;;;;18.33;82.76;97321.66;5018438;28;20053;-62
2022/08/20 04:12:40;;;;;;;3.53;2.45;;;;;;;18.35;82.84;97321.38;5021788;28;20049;-63
2022/08/20 04:15:18;;;;;;;4.20;2.80;;;;;;;18.32;83.04;97333.75;5023905;28;20075;-64
2022/08/20 04:17:49;;;;;;;4.57;3.00;;;;;;;18.32;83.20;97325.53;5023830;28;21075;-64
2022/08/20 04:20:21;;;;;;;5.32;3.20;;;;;;;18.38;83.16;97326.22;5013367;28;20046;-63
2022/08/20 04:22:53;;;;;;;5.43;2.95;;;;;;;18.36;83.32;97332.03;5026596;28;20072;-62
2022/08/20 04:25:30;;;;;;;4.20;2.90;;;;;;;18.35;83.21;97330.38;5026302;28;20116;-64
2022/08/20 04:28:04;;;;;;;5.95;2.90;;;;;;;18.37;83.23;97333.66;5026290;28;20785;-63
2022/08/20 04:30:32;;;;;;;4.47;2.83;;;;;;;18.38;83.23;97335.28;5025244;28;20654;-63
2022/08/20 04:32:59;;;;;;;4.63;2.67;;;;;;;18.41;83.19;97337.41;5009216;28;20048;-63
2022/08/20 04:35:26;;;;;;;4.03;2.78;;;;;;;18.43;83.24;97339.84;5025515;28;20037;-63
2022/08/20 04:38:08;;;;;;;4.43;2.60;;;;;;;18.45;82.90;97338.44;5026521;28;20581;-64
2022/08/20 04:40:56;;;;;;;4.55;2.47;;;;;;;18.45;83.17;97338.44;5021048;28;20048;-64
2022/08/20 04:43:34;;;;;;;4.07;2.50;;;;;;;18.46;83.25;97336.47;5022715;28;20730;-64
2022/08/20 04:46:05;;;;;;;6.20;2.33;;;;;;;18.45;83.18;97345.81;5018265;28;20061;-64
2022/08/20 04:48:32;;;;;;;5.70;2.63;;;;;;;18.42;83.39;97346.44;5023890;28;20057;-64
2022/08/20 04:51:01;;;;;;;5.25;2.85;;;;;;;18.38;83.34;97338.00;5022328;28;20041;-63
2022/08/20 04:53:29;;;;;;;4.50;2.90;;;;;;;18.40;83.64;97337.72;5023614;28;20041;-63
2022/08/20 04:55:58;;;;;;;3.97;2.83;;;;;;;18.39;83.52;97345.09;5023624;28;20175;-63
2022/08/20 04:58:36;;;;;;;4.32;2.72;;;;;;;18.43;83.72;97342.59;5020988;28;20500;-64
2022/08/20 05:01:06;;;;;;;7.30;2.65;;;;;;;18.49;83.45;97344.09;5020263;28;20041;-63
2022/08/20 05:03:34;;;;;;;6.90;3.35;;;;;;;18.52;83.10;97346.25;5020913;28;20130;-64
2022/08/20 05:06:00;;;;;;;4.68;2.75;;;;;;;18.52;83.11;97350.91;5023434;28;20111;-64
2022/08/20 05:08:28;;;;;;;4.47;2.67;;;;;;;18.53;83.38;97352.53;5017721;28;20128;-63
2022/08/20 05:10:56;;;;;;;4.85;3.00;;;;;;;18.52;83.34;97359.13;5023393;28;20536;-64
2022/08/20 05:13:43;;;;;;;4.63;2.75;;;;;;;18.60;83.05;97352.94;5024887;28;20076;-64
2022/08/20 05:16:09;;;;;;;4.53;3.05;;;;;;;18.58;83.46;97360.66;5022302;28;20096;-63
2022/08/20 05:18:36;;;;;;;6.55;3.28;;;;;;;18.54;83.48;97359.66;5023221;28;20116;-63
2022/08/20 05:21:04;;;;;;;6.40;3.10;;;;;;;18.55;83.51;97361.25;5022286;28;20460;-64
2022/08/20 05:23:34;;;;;;;5.47;2.92;;;;;;;18.60;83.30;97366.63;5024378;28;20073;-64
2022/08/20 05:26:06;;;;;;;3.97;2.35;;;;;;;18.65;83.03;97365.75;5023270;28;20044;-64
2022/08/20 05:28:33;;;;;;;5.22;2.97;;;;;;;18.66;83.17;97372.84;5023669;28;20059;-64
2022/08/20 05:31:14;;;;;;;4.53;2.70;;;;;;;18.66;83.09;97376.41;5023133;28;20060;-64
2022/08/20 05:33:40;;;;;;;4.85;2.80;;;;;;;18.58;83.46;97377.91;5019095;28;20045;-63
2022/08/20 05:36:07;;;;;;;4.55;2.75;;;;;;;18.52;84.13;97381.06;5018616;28;20053;-63
2022/08/20 05:38:35;;;;;;;4.85;2.58;;;;;;;18.51;84.40;97379.44;5020488;28;20565;-63
2022/08/20 05:41:03;;;;;;;7.68;3.08;;;;;;;18.54;83.90;97376.09;5021454;28;20115;-63
2022/08/20 05:43:32;;;;;;;4.03;2.17;;;;;;;18.58;84.10;97377.91;5023846;28;20544;-64
2022/08/20 05:45:59;;;;;;;4.45;2.78;;;;;;;18.57;84.36;97378.22;5021975;28;20065;-63
2022/08/20 05:48:27;;;;;;;6.05;2.80;;;;;;;18.63;84.00;97374.25;5021422;28;20096;-64
2022/08/20 05:50:54;;;;;;;5.28;2.67;;;;;;;18.76;83.56;97371.81;5016743;28;20041;-63
2022/08/20 05:53:23;;;;;;;3.88;2.50;;;;;;;18.74;83.33;97372.13;5022099;28;20053;-63
2022/08/20 05:55:50;;;;;;;5.90;2.75;;;;;;;18.73;83.50;97378.75;5020955;28;20502;-64
2022/08/20 05:58:24;;;;;;;6.15;2.95;;;;;;;18.72;83.28;97375.16;5017209;28;20041;-63
2022/08/20 06:00:52;;;;;;;4.28;2.47;;;;;;;18.80;83.03;97379.13;5021858;28;20059;-63
2022/08/20 06:06:04;;;;;;;4.90;2.78;;;;;;;18.79;83.10;97382.19;5021428;28;20041;-63
2022/08/20 06:08:43;;;;;;;4.35;2.67;;;;;;;18.82;82.85;97378.81;5024739;28;20041;-63
2022/08/20 06:11:10;;;;;;;5.53;2.97;;;;;;;18.87;82.09;97388.88;5011192;28;20165;-63
2022/08/20 06:13:36;;;;;;;6.07;2.90;;;;;;;18.87;82.55;97386.94;5022717;28;20049;-63
2022/08/20 06:16:03;;;;;;;4.60;2.70;;;;;;;18.92;82.10;97388.78;5012528;28;20049;-63
2022/08/20 06:18:33;;;;;;;4.63;2.78;;;;;;;18.94;82.13;97389.28;5005012;28;20121;-63
2022/08/20 06:20:59;;;;;;;4.40;2.67;;;;;;;18.99;82.05;97397.41;5017233;28;20049;-63
2022/08/20 06:23:26;;;;;;;4.35;2.85;;;;;;;19.14;80.79;97395.47;5025045;28;20041;-63
2022/08/20 06:26:13;;;;;;;5.32;2.33;;;;;;;19.19;81.27;97387.94;5011963;28;20458;-63
2022/08/20 06:28:40;;;;;;;3.95;2.53;;;;;;;19.13;81.18;97388.38;5018692;28;20042;-64
2022/08/20 06:31:06;;;;;;;5.78;2.45;;;;;;;19.25;80.85;97388.66;5011944;28;20046;-63
2022/08/20 06:33:33;;;;;;;6.20;2.85;;;;;;;19.20;81.03;97388.78;5019640;28;20057;-64
2022/08/20 06:35:59;;;;;;;7.00;3.00;;;;;;;19.23;80.59;97391.69;5025226;28;20061;-63
2022/08/20 06:38:26;;;;;;;6.30;2.80;;;;;;;19.22;81.05;97397.50;5022943;28;20049;-63
2022/08/20 06:40:52;;;;;;;5.15;2.55;;;;;;;19.41;79.97;97397.34;5022386;28;20207;-63
2022/08/20 06:43:20;;;;;;;5.68;2.83;;;;;;;19.45;79.79;97395.59;5021884;28;20713;-63
2022/08/20 06:45:46;;;;;;;4.85;2.85;;;;;;;19.56;79.47;97404.41;5019673;28;20185;-64
2022/08/20 06:48:13;;;;;;;6.20;2.90;;;;;;;19.67;78.39;97399.50;5015599;28;20037;-64
2022/08/20 06:50:43;;;;;;;5.20;2.90;;;;;;;19.66;78.55;97399.78;5022475;28;20049;-63
2022/08/20 06:53:16;;;;;;;5.93;2.88;;;;;;;19.62;78.63;97410.59;5022729;28;20050;-63
2022/08/20 06:55:49;;;;;;;4.38;2.92;;;;;;;19.64;78.52;97400.09;5024708;28;20525;-62
2022/08/20 06:58:16;;;;;;;4.63;2.55;;;;;;;19.78;78.23;97405.53;5015282;28;20053;-63
2022/08/20 07:01:02;;;;;;;5.45;2.60;;;;;;;20.01;76.92;97402.81;5017161;28;20041;-63
2022/08/20 07:03:37;;;;;;;4.97;3.10;;;;;;;19.98;77.54;97407.00;5029358;28;20045;-64
2022/08/20 07:06:04;;;;;;;4.30;2.80;;;;;;;20.08;76.94;97402.41;5017665;28;20513;-63
2022/08/20 07:08:31;;;;;;;4.80;2.65;;;;;;;19.98;76.93;97406.19;5017102;28;20045;-63
2022/08/20 07:10:58;;;;;;;6.13;3.35;;;;;;;20.05;76.90;97395.56;5027227;28;20061;-63
2022/08/20 07:13:25;;;;;;;4.35;2.80;;;;;;;20.20;76.36;97404.56;5028975;28;20445;-63
2022/08/20 07:15:53;;;;;;;4.68;2.75;;;;;;;20.21;75.47;97403.41;5016798;28;20041;-63
2022/08/20 07:18:21;;;;;;;4.57;3.03;;;;;;;20.33;74.97;97411.91;5027018;28;20048;-63
2022/08/20 07:20:55;;;;;;;5.72;2.55;;;;;;;20.32;74.86;97418.53;5023730;28;20084;-63
2022/08/20 07:23:24;;;;;;;4.65;2.47;;;;;;;20.36;75.21;97410.47;5024858;28;20045;-63
2022/08/20 07:25:51;;;;;;;4.90;3.03;;;;;;;20.38;74.35;97406.25;5028701;28;20105;-63
2022/08/20 07:28:21;;;;;;;5.13;3.10;;;;;;;20.63;73.80;97405.88;5013843;28;20117;-62
2022/08/20 07:33:40;;;;;;;4.72;3.28;;;;;;;20.85;73.05;97412.44;5016885;28;20053;-63
2022/08/20 07:36:07;;;;;;;4.95;3.00;;;;;;;20.89;72.48;97413.44;5015414;28;20050;-63
2022/08/20 07:38:34;;;;;;;5.05;3.22;;;;;;;21.24;71.12;97416.28;5008695;28;20042;-63
2022/08/20 07:41:03;;;;;;;5.40;2.97;;;;;;;21.20;70.49;97414.50;5025060;28;20057;-63
2022/08/20 07:43:31;;;;;;;4.32;2.67;;;;;;;21.07;70.88;97417.06;5023229;28;20111;-63
2022/08/20 07:46:01;;;;;;;5.18;3.42;;;;;;;20.89;71.69;97413.44;5027832;28;20045;-63
2022/08/20 07:48:30;;;;;;;4.57;2.88;;;;;;;20.72;72.42;97422.44;5012567;28;20040;-63
2022/08/20 07:51:00;;;;;;;5.15;3.50;;;;;;;20.65;72.54;97428.41;5011346;28;20517;-63
2022/08/20 07:53:27;;;;;;;3.83;2.65;;;;;;;20.71;72.27;97431.81;5026743;28;20049;-63
2022/08/20 07:56:02;;;;;;;4.50;2.88;;;;;;;20.64;72.66;97433.06;5027339;28;20038;-64
2022/08/20 07:58:29;;;;;;;4.20;2.97;;;;;;;20.67;72.48;97429.69;5012826;28;20034;-63
2022/08/20 08:00:59;;;;;;;4.40;3.10;;;;;;;20.62;72.98;97432.59;5025565;28;20049;-63
2022/08/20 08:03:27;;;;;;;5.22;3.10;;;;;;;20.78;72.28;97437.66;5026970;28;20323;-63
2022/08/20 08:06:06;;;;;;;4.85;2.95;;;;;;;20.99;71.71;97450.88;5026539;28;20048;-63
2022/08/20 08:08:33;;;;;;;4.28;2.97;;;;;;;21.23;70.38;97435.88;5011782;28;20041;-63
2022/08/20 08:11:02;;;;;;;5.10;3.20;;;;;;;21.02;70.94;97436.47;5007794;28;20496;-63
2022/08/20 08:13:34;;;;;;;5.18;3.08;;;;;;;20.99;71.03;97443.44;5021719;28;20079;-63
2022/08/20 08:16:04;;;;;;;5.95;3.40;;;;;;;21.14;70.58;97433.91;5027516;28;20041;-63
2022/08/20 08:18:49;;;;;;;5.78;3.00;;;;;;;20.95;70.54;97433.38;5012374;28;20038;-63
2022/08/20 08:21:17;;;;;;;5.43;3.10;;;;;;;20.82;71.47;97435.09;5021319;28;20048;-63
2022/08/20 08:23:44;;;;;;;4.03;2.65;;;;;;;20.98;70.48;97433.56;5010544;28;20540;-63
2022/08/20 08:26:15;;;;;;;4.35;2.83;;;;;;;21.01;70.84;97435.66;5026756;28;20041;-63
2022/08/20 08:28:45;;;;;;;4.05;2.28;;;;;;;21.03;70.69;97430.66;5027061;28;20099;-63
2022/08/20 08:31:13;;;;;;;4.38;2.60;;;;;;;20.94;70.55;97432.59;5026010;28;20046;-62
2022/08/20 08:33:40;;;;;;;4.00;2.20;;;;;;;21.03;70.62;97429.84;5025078;28;20060;-62
2022/08/20 08:36:10;;;;;;;4.40;2.30;;;;;;;21.07;70.05;97436.31;5019576;28;20042;-63
2022/08/20 08:38:42;;;;;;;3.22;1.98;;;;;;;21.24;69.57;97429.25;5020734;28;20034;-63
2022/08/20 08:41:28;;;;;;;2.45;1.70;;;;;;;21.04;69.36;97434.19;5013112;28;20049;-63
2022/08/20 08:44:03;;;;;;;3.47;1.83;;;;;;;20.81;70.29;97439.78;5024554;28;20072;-64
2022/08/20 08:46:32;;;;;;;2.72;1.55;;;;;;;20.89;70.00;97435.44;5025807;28;20091;-63
2022/08/20 08:49:01;;;;;;;2.85;1.55;;;;;;;21.00;70.29;97442.31;5026903;28;20049;-64
2022/08/20 08:51:43;;;;;;;3.05;1.65;;;;;;;21.47;68.74;97443.69;5006558;28;20052;-63
2022/08/20 08:54:15;;;;;;;3.08;1.70;;;;;;;21.24;69.62;97445.75;5007015;28;20709;-63
2022/08/20 08:56:42;;;;;;;2.60;1.63;;;;;;;21.36;68.80;97439.63;5006965;28;20490;-63
2022/08/20 08:59:15;;;;;;;2.97;1.65;;;;;;;21.51;68.38;97441.09;5025859;28;20434;-63
2022/08/20 09:01:52;;;;;;;2.90;1.65;;;;;;;21.65;67.37;97441.78;5014006;28;20056;-63
2022/08/20 09:04:30;;;;;;;2.35;1.58;;;;;;;21.56;67.76;97440.97;5026486;28;20496;-63
2022/08/20 09:07:00;;;;;;;2.83;1.35;;;;;;;21.90;66.88;97441.31;5025798;28;20107;-63
2022/08/20 09:09:31;;;;;;;3.28;1.52;;;;;;;21.93;66.58;97448.94;5025841;28;20041;-63
2022/08/20 09:12:08;;;;;;;3.15;1.80;;;;;;;21.66;68.92;97443.38;5024153;28;20033;-63
2022/08/20 09:14:35;;;;;;;2.70;1.65;;;;;;;21.51;73.28;97443.84;5025935;28;20045;-63
2022/08/20 09:17:02;;;;;;;5.03;1.80;;;;;;;20.97;79.08;97442.94;5023060;28;20041;-63
2022/08/20 09:19:29;;;;;;;2.88;1.77;;;;;;;20.90;78.24;97448.09;5022404;28;20041;-63
2022/08/20 09:21:56;;;;;;;3.75;1.98;;;;;;;20.95;82.16;97447.97;5019717;28;20531;-63
2022/08/20 09:24:23;;;;;;;4.25;1.98;;;;;;;20.85;83.40;97456.44;5018613;28;20045;-63
2022/08/20 09:26:50;;;;;;;4.45;2.03;;;;;;;20.73;81.84;97448.81;5024194;28;20464;-63
2022/08/20 09:29:17;;;;;;;3.25;2.20;;;;;;;21.03;82.62;97452.69;5023442;28;20049;-63
2022/08/20 09:31:43;;;;;;;4.30;2.45;;;;;;;21.15;82.44;97454.00;5020239;28;20611;-63
2022/08/20 09:34:12;;;;;;;6.10;2.88;;;;;;;21.09;81.22;97450.59;5017326;28;20125;-63
2022/08/20 09:36:38;;;;;;;3.97;2.65;;;;;;;20.98;82.73;97449.25;5019993;28;20041;-63
2022/08/20 09:39:05;;;;;;;3.13;1.95;;;;;;;21.28;83.07;97447.56;5017074;28;20111;-63
2022/08/20 09:41:31;;;;;;;3.40;1.55;;;;;;;21.11;80.28;97453.03;5009270;28;20033;-63
2022/08/20 09:44:00;;;;;;;2.85;1.23;;;;;;;20.94;80.11;97456.53;5017400;28;20073;-62
2022/08/20 09:46:27;;;;;;;2.38;1.30;;;;;;;21.02;83.44;97461.25;5011849;28;20045;-63
2022/08/20 09:48:54;;;;;;;6.60;2.20;;;;;;;21.18;83.60;97461.63;5022824;28;20484;-63
2022/08/20 09:51:21;;;;;;;2.53;1.63;;;;;;;20.77;83.33;97469.88;5016991;28;20040;-63
2022/08/20 09:53:48;;;;;;;6.53;2.55;;;;;;;20.20;88.38;97471.31;5023111;28;20517;-63
2022/08/20 09:56:16;;;;;;;9.52;3.63;;;;;;;20.10;91.18;97460.59;5011654;28;20049;-62
2022/08/20 09:58:52;;;;;;;4.88;2.28;;;;;;;20.07;91.64;97458.47;5022969;28;20099;-63
2022/08/20 10:01:20;;;;;;;4.82;2.25;;;;;;;19.69;92.62;97462.34;5019481;28;20045;-62
2022/08/20 10:03:48;;;;;;;4.07;2.67;;;;;;;19.54;93.44;97463.50;5024078;28;20123;-63
2022/08/20 10:06:19;;;;;;;5.60;3.42;;;;;;;19.74;95.07;97463.06;5022298;28;20049;-62
2022/08/20 10:08:47;;;;;;;5.85;3.42;;;;;;;19.71;94.51;97471.09;5011150;28;20069;-62
2022/08/20 10:11:14;;;;;;;5.68;4.10;;;;;;;20.14;92.56;97465.16;5023506;28;20057;-63
2022/08/20 10:13:40;;;;;;;7.30;4.80;;;;;;;20.34;97.17;97463.00;5022137;28;20048;-62
2022/08/20 10:16:07;;;;;;;5.20;3.55;;;;;;;20.06;92.46;97476.91;5020120;28;20057;-62
2022/08/20 10:18:35;;;;;;;3.88;2.92;;;;;;;19.99;92.87;97468.28;5021333;28;20053;-61
2022/08/20 10:21:02;;;;;;;5.78;2.30;;;;;;;20.09;87.96;97467.22;5022504;28;20053;-62
2022/08/20 10:23:29;;;;;;;4.13;2.47;;;;;;;19.91;92.56;97469.00;5012408;28;20099;-62
2022/08/20 10:25:55;;;;;;;4.05;2.40;;;;;;;19.63;90.87;97467.16;5024149;28;20448;-62
2022/08/20 10:28:22;;;;;;;3.13;1.75;;;;;;;19.53;89.94;97468.19;5024581;28;20033;-62
2022/08/20 10:30:48;;;;;;;3.42;1.77;;;;;;;19.54;90.71;97461.59;5017618;28;20045;-62
2022/08/20 10:33:15;;;;;;;3.40;2.00;;;;;;;19.76;91.29;97468.25;5006177;28;20545;-62
2022/08/20 10:35:41;;;;;;;3.03;1.63;;;;;;;19.65;87.81;97461.34;5012622;28;20045;-62
2022/08/20 10:38:08;;;;;;;3.50;1.65;;;;;;;19.80;87.70;97458.25;5017563;28;20414;-62
2022/08/20 10:40:34;;;;;;;2.53;1.48;;;;;;;19.96;89.02;97450.44;5021302;28;20038;-62
2022/08/20 10:43:01;;;;;;;2.53;1.30;;;;;;;20.09;86.74;97451.53;5009039;28;20076;-62
2022/08/20 10:45:28;;;;;;;2.72;1.60;;;;;;;19.99;86.88;97449.03;5010124;28;20057;-62
2022/08/20 10:47:58;;;;;;;2.95;1.42;;;;;;;20.20;86.98;97449.34;5018069;28;20051;-62
2022/08/20 10:50:24;;;;;;;2.95;1.20;;;;;;;20.33;84.22;97453.16;5021419;28;20401;-62
2022/08/20 10:52:55;;;;;;;2.83;1.48;;;;;;;20.47;85.13;97453.06;5009724;28;20066;-62
2022/08/20 10:55:22;;;;;;;2.88;1.23;;;;;;;20.92;84.13;97443.91;5008249;28;20049;-62
2022/08/20 10:57:49;;;;;;;1.83;1.10;;;;;;;20.99;80.65;97437.09;5007356;28;20050;-62
2022/08/20 11:00:17;;;;;;;2.38;0.90;;;;;;;21.05;79.92;97444.91;5015691;28;20096;-62
2022/08/20 11:02:44;;;;;;;2.20;0.90;;;;;;;20.91;78.25;97438.72;5028869;28;20131;-62
2022/08/20 11:05:11;;;;;;;1.85;0.90;;;;;;;20.94;81.03;97438.09;5023982;28;20077;-62
2022/08/20 11:07:40;;;;;;;1.60;0.90;;;;;;;20.66;79.48;97439.09;5012763;28;20123;-62
2022/08/20 11:10:26;;;;;;;1.35;0.90;;;;;;;20.57;79.32;97430.00;5025539;28;20128;-62
2022/08/20 11:12:53;;;;;;;1.98;0.90;;;;;;;20.89;81.31;97438.22;5025501;28;20049;-62
2022/08/20 11:15:19;;;;;;;2.83;1.02;;;;;;;21.00;81.88;97441.47;5023923;28;20578;-62
2022/08/20 11:17:46;;;;;;;3.67;1.90;;;;;;;21.26;82.24;97436.03;5023563;28;20057;-62
2022/08/20 11:20:15;;;;;;;1.00;0.68;;;;;;;21.55;74.70;97444.81;5026332;28;20049;-62
2022/08/20 11:22:41;;;;;;;4.10;0.70;;;;;;;21.83;74.99;97434.31;5024187;28;20033;-64
2022/08/20 11:25:08;;;;;;;1.35;0.60;;;;;;;22.01;76.32;97439.03;5019834;28;20042;-63
2022/08/20 11:27:43;;;;;;;0.95;0.63;;;;;;;22.24;70.57;97445.16;5007761;28;20584;-65
2022/08/20 11:30:15;;;;;;;1.92;0.57;;;;;;;22.50;71.23;97436.00;5024364;28;20037;-63
2022/08/20 11:32:41;;;;;;;1.90;0.60;;;;;;;22.43;71.29;97447.53;5025791;28;20510;-64
2022/08/20 11:35:08;;;;;;;4.28;0.90;;;;;;;22.54;67.70;97439.72;5024866;28;20103;-63
2022/08/20 11:37:56;;;;;;;3.83;0.65;;;;;;;22.20;69.20;97449.69;5023439;28;20053;-62
2022/08/20 11:40:24;;;;;;;2.03;0.88;;;;;;;21.95;70.58;97441.94;5025240;28;20041;-64
2022/08/20 11:42:51;;;;;;;1.77;0.70;;;;;;;21.93;72.48;97444.22;5021670;28;20412;-62
2022/08/20 11:45:37;;;;;;;1.27;0.70;;;;;;;21.99;68.74;97450.38;5022782;28;20072;-62
2022/08/20 11:48:04;;;;;;;0.90;0.60;;;;;;;22.22;67.52;97441.91;5024944;28;20111;-61
2022/08/20 11:50:31;;;;;;;1.55;0.70;;;;;;;22.33;67.51;97443.19;5014693;28;20164;-61
2022/08/20 11:52:57;;;;;;;1.20;0.70;;;;;;;22.35;66.97;97434.59;5024296;28;20425;-62